sensor_id;sensor_type;location;lat;lon;timestamp;temperature;humidity
39325;DHT22;25037;49.488;9.900;2022-09-25T00:00:26;15.60;75.80
39325;DHT22;25037;49.488;9.900;2022-09-25T00:02:51;15.60;75.80
39325;DHT22;25037;49.488;9.900;2022-09-25T00:05:17;15.60;75.90
39325;DHT22;25037;49.488;9.900;2022-09-25T00:07:42;15.60;75.90
39325;DHT22;25037;49.488;9.900;2022-09-25T00:10:08;15.60;75.90
39325;DHT22;25037;49.488;9.900;2022-09-25T00:12:34;15.60;75.90
39325;DHT22;25037;49.488;9.900;2022-09-25T00:15:00;15.50;76.00
39325;DHT22;25037;49.488;9.900;2022-09-25T00:17:26;15.50;76.10
39325;DHT22;25037;49.488;9.900;2022-09-25T00:19:52;15.60;76.10
39325;DHT22;25037;49.488;9.900;2022-09-25T00:22:19;15.60;76.10
39325;DHT22;25037;49.488;9.900;2022-09-25T00:24:46;15.60;76.10
39325;DHT22;25037;49.488;9.900;2022-09-25T00:27:12;15.60;76.20
39325;DHT22;25037;49.488;9.900;2022-09-25T00:29:38;15.60;76.20
39325;DHT22;25037;49.488;9.900;2022-09-25T00:32:06;15.50;76.20
39325;DHT22;25037;49.488;9.900;2022-09-25T00:34:31;15.60;76.20
39325;DHT22;25037;49.488;9.900;2022-09-25T00:36:57;15.50;76.20
39325;DHT22;25037;49.488;9.900;2022-09-25T00:39:23;15.60;76.30
39325;DHT22;25037;49.488;9.900;2022-09-25T00:41:48;15.60;76.30
39325;DHT22;25037;49.488;9.900;2022-09-25T00:49:54;15.60;76.30
39325;DHT22;25037;49.488;9.900;2022-09-25T00:52:21;15.60;76.30
39325;DHT22;25037;49.488;9.900;2022-09-25T00:54:52;15.60;76.30
39325;DHT22;25037;49.488;9.900;2022-09-25T00:57:20;15.60;76.30
39325;DHT22;25037;49.488;9.900;2022-09-25T00:59:52;15.60;76.30
39325;DHT22;25037;49.488;9.900;2022-09-25T01:02:35;15.60;76.40
39325;DHT22;25037;49.488;9.900;2022-09-25T01:05:10;15.60;76.50
39325;DHT22;25037;49.488;9.900;2022-09-25T01:07:40;15.60;76.40
39325;DHT22;25037;49.488;9.900;2022-09-25T01:10:07;15.60;76.50
39325;DHT22;25037;49.488;9.900;2022-09-25T01:12:39;15.60;76.40
39325;DHT22;25037;49.488;9.900;2022-09-25T01:15:07;15.60;76.60
39325;DHT22;25037;49.488;9.900;2022-09-25T01:17:52;15.50;76.50
39325;DHT22;25037;49.488;9.900;2022-09-25T01:25:49;15.60;76.50
39325;DHT22;25037;49.488;9.900;2022-09-25T01:31:18;15.50;76.50
39325;DHT22;25037;49.488;9.900;2022-09-25T01:33:51;15.60;76.50
39325;DHT22;25037;49.488;9.900;2022-09-25T01:36:23;15.60;76.50
39325;DHT22;25037;49.488;9.900;2022-09-25T01:42:02;15.60;76.30
39325;DHT22;25037;49.488;9.900;2022-09-25T01:44:34;15.60;76.40
39325;DHT22;25037;49.488;9.900;2022-09-25T01:47:14;15.50;76.40
39325;DHT22;25037;49.488;9.900;2022-09-25T01:49:49;15.60;76.60
39325;DHT22;25037;49.488;9.900;2022-09-25T01:52:20;15.60;76.50
39325;DHT22;25037;49.488;9.900;2022-09-25T01:54:50;15.60;76.50
39325;DHT22;25037;49.488;9.900;2022-09-25T01:57:23;15.60;76.50
39325;DHT22;25037;49.488;9.900;2022-09-25T02:02:29;15.50;76.60
39325;DHT22;25037;49.488;9.900;2022-09-25T02:05:02;15.50;76.50
39325;DHT22;25037;49.488;9.900;2022-09-25T02:07:33;15.50;76.60
39325;DHT22;25037;49.488;9.900;2022-09-25T02:10:33;15.50;76.60
39325;DHT22;25037;49.488;9.900;2022-09-25T02:13:08;15.50;76.50
39325;DHT22;25037;49.488;9.900;2022-09-25T02:15:50;15.40;76.70
39325;DHT22;25037;49.488;9.900;2022-09-25T02:18:17;15.40;76.70
39325;DHT22;25037;49.488;9.900;2022-09-25T02:26:39;15.40;76.70
39325;DHT22;25037;49.488;9.900;2022-09-25T02:29:05;15.50;76.70
39325;DHT22;25037;49.488;9.900;2022-09-25T02:31:36;15.40;76.60
39325;DHT22;25037;49.488;9.900;2022-09-25T02:34:05;15.40;76.70
39325;DHT22;25037;49.488;9.900;2022-09-25T02:36:31;15.40;76.70
39325;DHT22;25037;49.488;9.900;2022-09-25T02:38:58;15.50;76.70
39325;DHT22;25037;49.488;9.900;2022-09-25T02:49:27;15.50;76.90
39325;DHT22;25037;49.488;9.900;2022-09-25T02:52:11;15.50;76.90
39325;DHT22;25037;49.488;9.900;2022-09-25T02:55:06;15.50;76.90
39325;DHT22;25037;49.488;9.900;2022-09-25T03:00:08;15.50;77.00
39325;DHT22;25037;49.488;9.900;2022-09-25T03:02:35;15.50;76.90
39325;DHT22;25037;49.488;9.900;2022-09-25T03:05:03;15.50;76.90
39325;DHT22;25037;49.488;9.900;2022-09-25T03:07:30;15.50;77.00
39325;DHT22;25037;49.488;9.900;2022-09-25T03:10:17;15.50;77.00
39325;DHT22;25037;49.488;9.900;2022-09-25T03:12:43;15.50;77.00
39325;DHT22;25037;49.488;9.900;2022-09-25T03:15:10;15.60;77.00
39325;DHT22;25037;49.488;9.900;2022-09-25T03:17:36;15.60;77.00
39325;DHT22;25037;49.488;9.900;2022-09-25T03:20:04;15.60;77.00
39325;DHT22;25037;49.488;9.900;2022-09-25T03:22:31;15.60;77.00
39325;DHT22;25037;49.488;9.900;2022-09-25T03:24:56;15.70;77.00
39325;DHT22;25037;49.488;9.900;2022-09-25T03:27:21;15.60;77.00
39325;DHT22;25037;49.488;9.900;2022-09-25T03:29:48;15.60;76.90
39325;DHT22;25037;49.488;9.900;2022-09-25T03:32:14;15.70;77.00
39325;DHT22;25037;49.488;9.900;2022-09-25T03:34:40;15.60;77.00
39325;DHT22;25037;49.488;9.900;2022-09-25T03:37:05;15.70;77.00
39325;DHT22;25037;49.488;9.900;2022-09-25T03:39:31;15.60;77.00
39325;DHT22;25037;49.488;9.900;2022-09-25T03:41:56;15.70;77.10
39325;DHT22;25037;49.488;9.900;2022-09-25T03:44:22;15.70;77.00
39325;DHT22;25037;49.488;9.900;2022-09-25T03:46:47;15.70;77.00
39325;DHT22;25037;49.488;9.900;2022-09-25T03:49:13;15.70;77.00
39325;DHT22;25037;49.488;9.900;2022-09-25T03:51:38;15.70;76.90
39325;DHT22;25037;49.488;9.900;2022-09-25T03:54:06;15.70;76.90
39325;DHT22;25037;49.488;9.900;2022-09-25T03:56:32;15.70;76.90
39325;DHT22;25037;49.488;9.900;2022-09-25T03:58:58;15.70;76.90
39325;DHT22;25037;49.488;9.900;2022-09-25T04:01:25;15.70;76.90
39325;DHT22;25037;49.488;9.900;2022-09-25T04:03:51;15.70;77.00
39325;DHT22;25037;49.488;9.900;2022-09-25T04:06:19;15.80;77.00
39325;DHT22;25037;49.488;9.900;2022-09-25T04:08:46;15.70;77.00
39325;DHT22;25037;49.488;9.900;2022-09-25T04:11:15;15.70;77.00
39325;DHT22;25037;49.488;9.900;2022-09-25T04:13:40;15.70;77.00
39325;DHT22;25037;49.488;9.900;2022-09-25T04:16:07;15.70;77.00
39325;DHT22;25037;49.488;9.900;2022-09-25T04:18:33;15.70;77.00
39325;DHT22;25037;49.488;9.900;2022-09-25T04:21:03;15.70;77.00
39325;DHT22;25037;49.488;9.900;2022-09-25T04:23:30;15.70;77.00
39325;DHT22;25037;49.488;9.900;2022-09-25T04:25:56;15.70;77.00
39325;DHT22;25037;49.488;9.900;2022-09-25T04:28:22;15.70;77.00
39325;DHT22;25037;49.488;9.900;2022-09-25T04:30:48;15.80;77.00
39325;DHT22;25037;49.488;9.900;2022-09-25T04:33:15;15.70;77.00
39325;DHT22;25037;49.488;9.900;2022-09-25T04:35:59;15.70;77.00
39325;DHT22;25037;49.488;9.900;2022-09-25T04:38:25;15.70;77.00
39325;DHT22;25037;49.488;9.900;2022-09-25T04:40:51;15.70;77.00
39325;DHT22;25037;49.488;9.900;2022-09-25T04:43:16;15.80;77.00
39325;DHT22;25037;49.488;9.900;2022-09-25T04:45:42;15.80;77.00
39325;DHT22;25037;49.488;9.900;2022-09-25T04:48:08;15.80;77.00
39325;DHT22;25037;49.488;9.900;2022-09-25T04:50:34;15.70;77.00
39325;DHT22;25037;49.488;9.900;2022-09-25T04:52:59;15.80;77.00
39325;DHT22;25037;49.488;9.900;2022-09-25T04:55:25;15.70;77.10
39325;DHT22;25037;49.488;9.900;2022-09-25T04:57:52;15.70;77.10
39325;DHT22;25037;49.488;9.900;2022-09-25T05:00:19;15.70;77.10
39325;DHT22;25037;49.488;9.900;2022-09-25T05:02:47;15.80;77.10
39325;DHT22;25037;49.488;9.900;2022-09-25T05:05:13;15.70;77.10
39325;DHT22;25037;49.488;9.900;2022-09-25T05:07:49;15.70;77.10
39325;DHT22;25037;49.488;9.900;2022-09-25T05:10:14;15.70;77.10
39325;DHT22;25037;49.488;9.900;2022-09-25T05:12:40;15.70;77.10
39325;DHT22;25037;49.488;9.900;2022-09-25T05:15:06;15.70;77.10
39325;DHT22;25037;49.488;9.900;2022-09-25T05:17:31;15.70;77.20
39325;DHT22;25037;49.488;9.900;2022-09-25T05:19:57;15.80;77.20
39325;DHT22;25037;49.488;9.900;2022-09-25T05:22:23;15.80;77.10
39325;DHT22;25037;49.488;9.900;2022-09-25T05:24:48;15.80;77.10
39325;DHT22;25037;49.488;9.900;2022-09-25T05:27:14;15.80;77.10
39325;DHT22;25037;49.488;9.900;2022-09-25T05:29:39;15.70;77.10
39325;DHT22;25037;49.488;9.900;2022-09-25T05:32:05;15.80;77.20
39325;DHT22;25037;49.488;9.900;2022-09-25T05:34:31;15.80;77.20
39325;DHT22;25037;49.488;9.900;2022-09-25T05:36:56;15.80;77.10
39325;DHT22;25037;49.488;9.900;2022-09-25T05:39:22;15.80;77.10
39325;DHT22;25037;49.488;9.900;2022-09-25T05:41:47;15.80;77.10
39325;DHT22;25037;49.488;9.900;2022-09-25T05:44:13;15.80;77.10
39325;DHT22;25037;49.488;9.900;2022-09-25T05:46:39;15.90;77.10
39325;DHT22;25037;49.488;9.900;2022-09-25T05:49:04;15.80;77.10
39325;DHT22;25037;49.488;9.900;2022-09-25T05:51:31;15.90;77.10
39325;DHT22;25037;49.488;9.900;2022-09-25T05:53:57;15.90;77.10
39325;DHT22;25037;49.488;9.900;2022-09-25T05:56:22;15.90;77.10
39325;DHT22;25037;49.488;9.900;2022-09-25T05:58:49;15.90;77.00
39325;DHT22;25037;49.488;9.900;2022-09-25T06:01:14;15.90;77.00
39325;DHT22;25037;49.488;9.900;2022-09-25T06:03:40;16.00;77.00
39325;DHT22;25037;49.488;9.900;2022-09-25T06:06:06;16.00;77.00
39325;DHT22;25037;49.488;9.900;2022-09-25T06:08:32;16.00;76.90
39325;DHT22;25037;49.488;9.900;2022-09-25T06:10:59;16.00;76.90
39325;DHT22;25037;49.488;9.900;2022-09-25T06:13:25;16.00;76.80
39325;DHT22;25037;49.488;9.900;2022-09-25T06:15:51;16.00;76.70
39325;DHT22;25037;49.488;9.900;2022-09-25T06:18:19;16.00;76.60
39325;DHT22;25037;49.488;9.900;2022-09-25T06:20:45;16.00;76.60
39325;DHT22;25037;49.488;9.900;2022-09-25T06:23:11;16.10;76.60
39325;DHT22;25037;49.488;9.900;2022-09-25T06:25:37;16.10;76.50
39325;DHT22;25037;49.488;9.900;2022-09-25T06:28:03;16.10;76.50
39325;DHT22;25037;49.488;9.900;2022-09-25T06:30:30;16.10;76.50
39325;DHT22;25037;49.488;9.900;2022-09-25T06:33:12;16.20;76.50
39325;DHT22;25037;49.488;9.900;2022-09-25T06:35:43;16.20;76.40
39325;DHT22;25037;49.488;9.900;2022-09-25T06:38:09;16.20;76.40
39325;DHT22;25037;49.488;9.900;2022-09-25T06:40:35;16.30;76.30
39325;DHT22;25037;49.488;9.900;2022-09-25T06:43:03;16.30;76.30
39325;DHT22;25037;49.488;9.900;2022-09-25T06:45:31;16.30;76.10
39325;DHT22;25037;49.488;9.900;2022-09-25T06:48:03;16.40;76.10
39325;DHT22;25037;49.488;9.900;2022-09-25T06:53:09;16.40;75.90
39325;DHT22;25037;49.488;9.900;2022-09-25T06:55:36;16.40;75.90
39325;DHT22;25037;49.488;9.900;2022-09-25T06:58:04;16.40;75.80
39325;DHT22;25037;49.488;9.900;2022-09-25T07:00:31;16.40;75.80
39325;DHT22;25037;49.488;9.900;2022-09-25T07:02:57;16.40;75.80
39325;DHT22;25037;49.488;9.900;2022-09-25T07:05:42;16.40;75.70
39325;DHT22;25037;49.488;9.900;2022-09-25T07:08:09;16.40;75.60
39325;DHT22;25037;49.488;9.900;2022-09-25T07:10:35;16.40;75.60
39325;DHT22;25037;49.488;9.900;2022-09-25T07:13:09;16.40;75.60
39325;DHT22;25037;49.488;9.900;2022-09-25T07:15:35;16.40;75.60
39325;DHT22;25037;49.488;9.900;2022-09-25T07:18:00;16.40;75.50
39325;DHT22;25037;49.488;9.900;2022-09-25T07:20:26;16.40;75.40
39325;DHT22;25037;49.488;9.900;2022-09-25T07:22:51;16.50;75.30
39325;DHT22;25037;49.488;9.900;2022-09-25T07:25:17;16.50;75.20
39325;DHT22;25037;49.488;9.900;2022-09-25T07:27:43;16.50;75.20
39325;DHT22;25037;49.488;9.900;2022-09-25T07:30:09;16.40;75.20
39325;DHT22;25037;49.488;9.900;2022-09-25T07:32:34;16.40;75.30
39325;DHT22;25037;49.488;9.900;2022-09-25T07:35:00;16.40;75.30
39325;DHT22;25037;49.488;9.900;2022-09-25T07:37:27;16.30;75.40
39325;DHT22;25037;49.488;9.900;2022-09-25T07:39:53;16.30;75.40
39325;DHT22;25037;49.488;9.900;2022-09-25T07:42:18;16.30;75.50
39325;DHT22;25037;49.488;9.900;2022-09-25T07:44:44;16.30;75.50
39325;DHT22;25037;49.488;9.900;2022-09-25T07:47:09;16.30;75.50
39325;DHT22;25037;49.488;9.900;2022-09-25T07:49:39;16.20;75.50
39325;DHT22;25037;49.488;9.900;2022-09-25T07:52:05;16.20;75.50
39325;DHT22;25037;49.488;9.900;2022-09-25T07:54:31;16.20;75.40
39325;DHT22;25037;49.488;9.900;2022-09-25T07:56:57;16.20;75.50
39325;DHT22;25037;49.488;9.900;2022-09-25T07:59:23;16.30;75.50
39325;DHT22;25037;49.488;9.900;2022-09-25T08:01:48;16.30;75.50
39325;DHT22;25037;49.488;9.900;2022-09-25T08:04:14;16.30;75.40
39325;DHT22;25037;49.488;9.900;2022-09-25T08:06:39;16.30;75.40
39325;DHT22;25037;49.488;9.900;2022-09-25T08:09:05;16.40;75.40
39325;DHT22;25037;49.488;9.900;2022-09-25T08:11:33;16.40;75.40
39325;DHT22;25037;49.488;9.900;2022-09-25T08:13:58;16.40;75.40
39325;DHT22;25037;49.488;9.900;2022-09-25T08:16:25;16.40;75.40
39325;DHT22;25037;49.488;9.900;2022-09-25T08:18:51;16.40;75.30
39325;DHT22;25037;49.488;9.900;2022-09-25T08:21:18;16.40;75.30
39325;DHT22;25037;49.488;9.900;2022-09-25T08:23:49;16.40;75.30
39325;DHT22;25037;49.488;9.900;2022-09-25T08:26:16;16.50;75.30
39325;DHT22;25037;49.488;9.900;2022-09-25T08:28:42;16.50;75.20
39325;DHT22;25037;49.488;9.900;2022-09-25T08:31:08;16.60;75.20
39325;DHT22;25037;49.488;9.900;2022-09-25T08:33:34;16.60;75.10
39325;DHT22;25037;49.488;9.900;2022-09-25T08:36:02;16.60;75.10
39325;DHT22;25037;49.488;9.900;2022-09-25T08:38:29;16.60;75.10
39325;DHT22;25037;49.488;9.900;2022-09-25T08:41:04;16.70;75.10
39325;DHT22;25037;49.488;9.900;2022-09-25T08:43:36;16.70;75.10
39325;DHT22;25037;49.488;9.900;2022-09-25T08:46:04;16.70;74.90
39325;DHT22;25037;49.488;9.900;2022-09-25T08:48:57;16.70;74.90
39325;DHT22;25037;49.488;9.900;2022-09-25T08:51:42;16.70;74.80
39325;DHT22;25037;49.488;9.900;2022-09-25T08:54:31;16.80;74.80
39325;DHT22;25037;49.488;9.900;2022-09-25T08:57:36;16.70;74.80
39325;DHT22;25037;49.488;9.900;2022-09-25T09:00:07;16.70;74.80
39325;DHT22;25037;49.488;9.900;2022-09-25T09:02:44;16.70;74.90
39325;DHT22;25037;49.488;9.900;2022-09-25T09:05:21;16.80;74.80
39325;DHT22;25037;49.488;9.900;2022-09-25T09:07:54;16.80;74.80
39325;DHT22;25037;49.488;9.900;2022-09-25T09:10:35;16.80;74.70
39325;DHT22;25037;49.488;9.900;2022-09-25T09:15:42;16.80;74.40
39325;DHT22;25037;49.488;9.900;2022-09-25T09:18:21;16.80;74.20
39325;DHT22;25037;49.488;9.900;2022-09-25T09:20:51;16.80;74.00
39325;DHT22;25037;49.488;9.900;2022-09-25T09:23:23;16.80;73.90
39325;DHT22;25037;49.488;9.900;2022-09-25T09:26:01;16.80;73.80
39325;DHT22;25037;49.488;9.900;2022-09-25T09:31:45;16.70;73.90
39325;DHT22;25037;49.488;9.900;2022-09-25T09:37:19;16.70;74.00
39325;DHT22;25037;49.488;9.900;2022-09-25T09:40:06;16.70;74.00
39325;DHT22;25037;49.488;9.900;2022-09-25T09:45:21;16.80;74.00
39325;DHT22;25037;49.488;9.900;2022-09-25T09:50:23;16.90;73.80
39325;DHT22;25037;49.488;9.900;2022-09-25T09:52:58;16.90;73.80
39325;DHT22;25037;49.488;9.900;2022-09-25T09:55:33;16.90;73.80
39325;DHT22;25037;49.488;9.900;2022-09-25T09:58:04;16.90;73.70
39325;DHT22;25037;49.488;9.900;2022-09-25T10:00:33;17.00;73.70
39325;DHT22;25037;49.488;9.900;2022-09-25T10:03:03;17.00;73.50
39325;DHT22;25037;49.488;9.900;2022-09-25T10:05:45;17.10;73.20
39325;DHT22;25037;49.488;9.900;2022-09-25T10:08:11;17.30;72.90
39325;DHT22;25037;49.488;9.900;2022-09-25T10:10:42;17.50;72.70
39325;DHT22;25037;49.488;9.900;2022-09-25T10:13:18;17.70;72.10
39325;DHT22;25037;49.488;9.900;2022-09-25T10:16:04;17.90;71.70
39325;DHT22;25037;49.488;9.900;2022-09-25T10:18:36;18.20;71.20
39325;DHT22;25037;49.488;9.900;2022-09-25T10:21:14;18.30;70.80
39325;DHT22;25037;49.488;9.900;2022-09-25T10:23:52;18.30;70.60
39325;DHT22;25037;49.488;9.900;2022-09-25T10:26:33;18.30;70.50
39325;DHT22;25037;49.488;9.900;2022-09-25T10:29:03;18.30;70.40
39325;DHT22;25037;49.488;9.900;2022-09-25T10:31:39;18.30;70.70
39325;DHT22;25037;49.488;9.900;2022-09-25T10:34:20;18.30;70.60
39325;DHT22;25037;49.488;9.900;2022-09-25T10:36:50;18.40;70.60
39325;DHT22;25037;49.488;9.900;2022-09-25T10:39:30;18.30;70.60
39325;DHT22;25037;49.488;9.900;2022-09-25T10:41:57;18.30;70.60
39325;DHT22;25037;49.488;9.900;2022-09-25T10:44:37;18.40;70.50
39325;DHT22;25037;49.488;9.900;2022-09-25T10:50:13;18.30;70.50
39325;DHT22;25037;49.488;9.900;2022-09-25T10:52:49;18.20;70.70
39325;DHT22;25037;49.488;9.900;2022-09-25T10:55:27;18.20;70.80
39325;DHT22;25037;49.488;9.900;2022-09-25T11:00:39;18.00;71.10
39325;DHT22;25037;49.488;9.900;2022-09-25T11:03:05;18.00;71.40
39325;DHT22;25037;49.488;9.900;2022-09-25T11:05:33;17.90;71.30
39325;DHT22;25037;49.488;9.900;2022-09-25T11:08:02;17.90;71.50
39325;DHT22;25037;49.488;9.900;2022-09-25T11:10:33;17.90;71.60
39325;DHT22;25037;49.488;9.900;2022-09-25T11:13:05;17.90;71.80
39325;DHT22;25037;49.488;9.900;2022-09-25T11:15:32;17.90;71.90
39325;DHT22;25037;49.488;9.900;2022-09-25T11:17:59;17.80;71.90
39325;DHT22;25037;49.488;9.900;2022-09-25T11:20:29;17.80;72.00
39325;DHT22;25037;49.488;9.900;2022-09-25T11:25:33;17.90;72.20
39325;DHT22;25037;49.488;9.900;2022-09-25T11:28:26;17.90;72.20
39325;DHT22;25037;49.488;9.900;2022-09-25T11:31:02;18.00;72.20
39325;DHT22;25037;49.488;9.900;2022-09-25T11:33:44;18.00;72.10
39325;DHT22;25037;49.488;9.900;2022-09-25T11:36:22;18.10;71.70
39325;DHT22;25037;49.488;9.900;2022-09-25T11:39:02;18.20;71.70
39325;DHT22;25037;49.488;9.900;2022-09-25T11:41:55;18.40;71.70
39325;DHT22;25037;49.488;9.900;2022-09-25T11:47:20;18.70;71.00
39325;DHT22;25037;49.488;9.900;2022-09-25T11:49:51;18.80;70.90
39325;DHT22;25037;49.488;9.900;2022-09-25T11:58:49;19.30;69.90
39325;DHT22;25037;49.488;9.900;2022-09-25T12:01:28;19.40;69.70
39325;DHT22;25037;49.488;9.900;2022-09-25T12:07:27;19.70;69.10
39325;DHT22;25037;49.488;9.900;2022-09-25T12:12:54;19.90;68.70
39325;DHT22;25037;49.488;9.900;2022-09-25T12:21:11;20.20;67.60
39325;DHT22;25037;49.488;9.900;2022-09-25T12:23:52;20.30;67.10
39325;DHT22;25037;49.488;9.900;2022-09-25T12:26:44;20.30;66.70
39325;DHT22;25037;49.488;9.900;2022-09-25T12:29:30;20.40;66.20
39325;DHT22;25037;49.488;9.900;2022-09-25T12:32:18;20.40;65.70
39325;DHT22;25037;49.488;9.900;2022-09-25T12:35:02;20.40;66.20
39325;DHT22;25037;49.488;9.900;2022-09-25T12:37:44;20.30;66.40
39325;DHT22;25037;49.488;9.900;2022-09-25T12:40:29;20.20;66.40
39325;DHT22;25037;49.488;9.900;2022-09-25T12:43:03;20.10;66.50
39325;DHT22;25037;49.488;9.900;2022-09-25T12:45:38;19.80;66.70
39325;DHT22;25037;49.488;9.900;2022-09-25T12:48:16;19.60;67.20
39325;DHT22;25037;49.488;9.900;2022-09-25T12:56:13;19.20;68.00
39325;DHT22;25037;49.488;9.900;2022-09-25T12:58:55;19.10;67.80
39325;DHT22;25037;49.488;9.900;2022-09-25T13:01:39;19.00;67.40
39325;DHT22;25037;49.488;9.900;2022-09-25T13:04:41;19.00;67.80
39325;DHT22;25037;49.488;9.900;2022-09-25T13:07:15;18.90;68.00
39325;DHT22;25037;49.488;9.900;2022-09-25T13:09:43;19.00;68.00
39325;DHT22;25037;49.488;9.900;2022-09-25T13:12:27;19.00;68.00
39325;DHT22;25037;49.488;9.900;2022-09-25T13:15:02;19.00;67.90
39325;DHT22;25037;49.488;9.900;2022-09-25T13:17:29;19.10;67.80
39325;DHT22;25037;49.488;9.900;2022-09-25T13:23:05;19.10;67.90
39325;DHT22;25037;49.488;9.900;2022-09-25T13:25:48;19.10;67.50
39325;DHT22;25037;49.488;9.900;2022-09-25T13:28:32;19.10;67.40
39325;DHT22;25037;49.488;9.900;2022-09-25T13:31:10;19.10;67.60
39325;DHT22;25037;49.488;9.900;2022-09-25T13:34:02;19.20;66.90
39325;DHT22;25037;49.488;9.900;2022-09-25T13:36:37;19.20;66.90
39325;DHT22;25037;49.488;9.900;2022-09-25T13:39:14;19.40;67.00
39325;DHT22;25037;49.488;9.900;2022-09-25T13:49:53;19.90;65.80
39325;DHT22;25037;49.488;9.900;2022-09-25T13:55:16;20.30;65.40
39325;DHT22;25037;49.488;9.900;2022-09-25T13:58:21;20.40;64.90
39325;DHT22;25037;49.488;9.900;2022-09-25T14:03:35;20.50;64.90
39325;DHT22;25037;49.488;9.900;2022-09-25T14:06:02;20.50;64.10
39325;DHT22;25037;49.488;9.900;2022-09-25T14:08:31;20.50;64.40
39325;DHT22;25037;49.488;9.900;2022-09-25T14:11:01;20.60;64.40
39325;DHT22;25037;49.488;9.900;2022-09-25T14:13:29;20.60;64.30
39325;DHT22;25037;49.488;9.900;2022-09-25T14:15:57;20.70;64.30
39325;DHT22;25037;49.488;9.900;2022-09-25T14:18:36;20.70;64.20
39325;DHT22;25037;49.488;9.900;2022-09-25T14:21:03;20.80;63.30
39325;DHT22;25037;49.488;9.900;2022-09-25T14:23:49;20.80;63.40
39325;DHT22;25037;49.488;9.900;2022-09-25T14:26:19;20.70;63.60
39325;DHT22;25037;49.488;9.900;2022-09-25T14:28:48;20.60;63.70
39325;DHT22;25037;49.488;9.900;2022-09-25T14:48:15;19.20;64.60
39325;DHT22;25037;49.488;9.900;2022-09-25T14:50:48;19.00;65.00
39325;DHT22;25037;49.488;9.900;2022-09-25T14:53:24;18.80;64.90
39325;DHT22;25037;49.488;9.900;2022-09-25T14:55:52;18.60;65.10
39325;DHT22;25037;49.488;9.900;2022-09-25T14:58:25;18.30;65.60
39325;DHT22;25037;49.488;9.900;2022-09-25T15:00:54;18.30;65.40
39325;DHT22;25037;49.488;9.900;2022-09-25T15:03:25;18.10;65.50
39325;DHT22;25037;49.488;9.900;2022-09-25T15:05:51;17.90;66.00
39325;DHT22;25037;49.488;9.900;2022-09-25T15:08:33;17.90;66.40
39325;DHT22;25037;49.488;9.900;2022-09-25T15:11:22;17.90;66.80
39325;DHT22;25037;49.488;9.900;2022-09-25T15:13:49;17.90;67.00
39325;DHT22;25037;49.488;9.900;2022-09-25T15:19:32;18.00;67.20
39325;DHT22;25037;49.488;9.900;2022-09-25T15:21:59;18.10;67.00
39325;DHT22;25037;49.488;9.900;2022-09-25T15:24:28;18.10;66.80
39325;DHT22;25037;49.488;9.900;2022-09-25T15:26:58;18.10;66.30
39325;DHT22;25037;49.488;9.900;2022-09-25T15:29:29;18.10;66.30
39325;DHT22;25037;49.488;9.900;2022-09-25T15:31:57;18.10;66.40
39325;DHT22;25037;49.488;9.900;2022-09-25T15:34:28;18.10;66.70
39325;DHT22;25037;49.488;9.900;2022-09-25T15:37:14;18.10;67.10
39325;DHT22;25037;49.488;9.900;2022-09-25T15:39:42;18.10;67.10
39325;DHT22;25037;49.488;9.900;2022-09-25T15:42:11;18.10;67.20
39325;DHT22;25037;49.488;9.900;2022-09-25T15:44:37;18.00;67.60
39325;DHT22;25037;49.488;9.900;2022-09-25T15:47:03;18.00;67.90
39325;DHT22;25037;49.488;9.900;2022-09-25T15:51:58;17.80;68.10
39325;DHT22;25037;49.488;9.900;2022-09-25T15:54:29;17.70;68.50
39325;DHT22;25037;49.488;9.900;2022-09-25T15:56:56;17.70;68.50
39325;DHT22;25037;49.488;9.900;2022-09-25T16:02:24;17.50;69.00
39325;DHT22;25037;49.488;9.900;2022-09-25T16:05:11;17.50;68.90
39325;DHT22;25037;49.488;9.900;2022-09-25T16:07:38;17.40;69.10
39325;DHT22;25037;49.488;9.900;2022-09-25T16:10:28;17.30;69.40
39325;DHT22;25037;49.488;9.900;2022-09-25T16:12:54;17.30;69.60
39325;DHT22;25037;49.488;9.900;2022-09-25T16:15:43;17.30;69.80
39325;DHT22;25037;49.488;9.900;2022-09-25T16:18:30;17.30;70.00
39325;DHT22;25037;49.488;9.900;2022-09-25T16:21:17;17.30;70.00
39325;DHT22;25037;49.488;9.900;2022-09-25T16:23:50;17.20;70.20
39325;DHT22;25037;49.488;9.900;2022-09-25T16:26:18;17.10;70.60
39325;DHT22;25037;49.488;9.900;2022-09-25T16:29:13;17.10;70.70
39325;DHT22;25037;49.488;9.900;2022-09-25T16:31:43;17.00;70.90
39325;DHT22;25037;49.488;9.900;2022-09-25T16:34:19;17.00;71.00
39325;DHT22;25037;49.488;9.900;2022-09-25T16:36:51;17.00;71.20
39325;DHT22;25037;49.488;9.900;2022-09-25T16:39:35;16.90;71.20
39325;DHT22;25037;49.488;9.900;2022-09-25T16:42:28;16.80;71.40
39325;DHT22;25037;49.488;9.900;2022-09-25T16:45:01;16.80;71.50
39325;DHT22;25037;49.488;9.900;2022-09-25T16:47:27;16.80;71.10
39325;DHT22;25037;49.488;9.900;2022-09-25T16:49:53;16.70;71.30
39325;DHT22;25037;49.488;9.900;2022-09-25T16:52:21;16.70;71.50
39325;DHT22;25037;49.488;9.900;2022-09-25T16:54:52;16.70;71.50
39325;DHT22;25037;49.488;9.900;2022-09-25T16:57:22;16.70;71.70
39325;DHT22;25037;49.488;9.900;2022-09-25T16:59:48;16.70;71.80
39325;DHT22;25037;49.488;9.900;2022-09-25T17:04:49;16.60;72.00
39325;DHT22;25037;49.488;9.900;2022-09-25T17:07:15;16.50;72.10
39325;DHT22;25037;49.488;9.900;2022-09-25T17:09:41;16.50;72.30
39325;DHT22;25037;49.488;9.900;2022-09-25T17:12:14;16.50;72.40
39325;DHT22;25037;49.488;9.900;2022-09-25T17:14:42;16.40;72.60
39325;DHT22;25037;49.488;9.900;2022-09-25T17:17:08;16.40;72.60
39325;DHT22;25037;49.488;9.900;2022-09-25T17:19:34;16.30;72.70
39325;DHT22;25037;49.488;9.900;2022-09-25T17:21:59;16.40;72.80
39325;DHT22;25037;49.488;9.900;2022-09-25T17:24:26;16.30;72.90
39325;DHT22;25037;49.488;9.900;2022-09-25T17:26:52;16.30;73.00
39325;DHT22;25037;49.488;9.900;2022-09-25T17:29:19;16.30;72.90
39325;DHT22;25037;49.488;9.900;2022-09-25T17:31:45;16.20;72.90
39325;DHT22;25037;49.488;9.900;2022-09-25T17:36:45;16.20;73.10
39325;DHT22;25037;49.488;9.900;2022-09-25T17:39:11;16.20;73.10
39325;DHT22;25037;49.488;9.900;2022-09-25T17:41:36;16.20;73.20
39325;DHT22;25037;49.488;9.900;2022-09-25T17:44:04;16.20;73.30
39325;DHT22;25037;49.488;9.900;2022-09-25T17:46:29;16.20;73.50
39325;DHT22;25037;49.488;9.900;2022-09-25T17:48:58;16.20;73.60
39325;DHT22;25037;49.488;9.900;2022-09-25T17:51:25;16.20;73.60
39325;DHT22;25037;49.488;9.900;2022-09-25T17:53:52;16.20;73.60
39325;DHT22;25037;49.488;9.900;2022-09-25T17:56:18;16.20;73.50
39325;DHT22;25037;49.488;9.900;2022-09-25T17:58:44;16.10;73.40
39325;DHT22;25037;49.488;9.900;2022-09-25T18:01:19;16.10;73.50
39325;DHT22;25037;49.488;9.900;2022-09-25T18:03:52;16.10;73.60
39325;DHT22;25037;49.488;9.900;2022-09-25T18:06:18;16.00;73.70
39325;DHT22;25037;49.488;9.900;2022-09-25T18:08:45;16.00;73.60